createdAt,value
2023-04-09T00:00:45.133Z,30.57
2023-04-09T00:03:12.212Z,33.10
2023-04-09T00:05:40.710Z,33.07
2023-04-09T00:08:08.774Z,33.80
2023-04-09T00:10:36.064Z,29.87
2023-04-09T00:13:02.964Z,30.93
2023-04-09T00:15:31.634Z,30.23
2023-04-09T00:18:01.716Z,35.50
2023-04-09T00:20:28.676Z,39.30
2023-04-09T00:22:56.537Z,47.20
2023-04-09T00:25:23.557Z,36.90
2023-04-09T00:27:50.682Z,33.90
2023-04-09T00:30:18.042Z,29.73
2023-04-09T00:32:48.361Z,29.57
2023-04-09T00:35:16.422Z,34.27
2023-04-09T00:37:43.812Z,33.43
2023-04-09T00:40:14.040Z,33.27
2023-04-09T00:42:41.790Z,33.70
2023-04-09T00:45:09.519Z,31.23
2023-04-09T00:47:38.909Z,31.97
2023-04-09T00:50:06.596Z,29.57
2023-04-09T00:52:33.571Z,32.13
2023-04-09T00:55:04.205Z,30.33
2023-04-09T00:57:31.484Z,32.13
2023-04-09T00:59:58.765Z,31.17
2023-04-09T01:02:26.688Z,44.73
2023-04-09T01:04:53.973Z,65.53
2023-04-09T01:07:26.857Z,38.20
2023-04-09T01:10:26.878Z,33.77
2023-04-09T01:13:18.552Z,36.43
2023-04-09T01:16:04.426Z,43.27
2023-04-09T01:19:11.124Z,39.73
2023-04-09T01:21:40.815Z,37.60
2023-04-09T01:24:56.061Z,38.00
2023-04-09T01:27:23.564Z,35.70
2023-04-09T01:29:53.045Z,33.40
2023-04-09T01:32:22.860Z,35.07
2023-04-09T01:34:51.234Z,34.60
2023-04-09T01:37:19.701Z,32.60
2023-04-09T01:39:47.360Z,33.33
2023-04-09T01:42:17.063Z,33.80
2023-04-09T01:44:46.555Z,32.77
2023-04-09T01:47:13.859Z,58.20
2023-04-09T01:49:42.617Z,36.83
2023-04-09T01:52:10.476Z,37.47
2023-04-09T01:54:37.502Z,36.77
2023-04-09T01:57:04.468Z,33.57
2023-04-09T01:59:31.383Z,35.60
2023-04-09T02:02:06.417Z,36.47
2023-04-09T02:04:41.276Z,33.00
2023-04-09T02:07:32.228Z,36.50
2023-04-09T02:10:01.115Z,35.57
2023-04-09T02:12:40.715Z,36.37
2023-04-09T02:15:08.669Z,39.57
2023-04-09T02:17:35.794Z,35.87
2023-04-09T02:20:03.165Z,38.57
2023-04-09T02:22:30.592Z,40.07
2023-04-09T02:24:57.577Z,37.40
2023-04-09T02:27:24.726Z,41.10
2023-04-09T02:29:52.150Z,43.90
2023-04-09T02:32:19.490Z,44.87
2023-04-09T02:34:46.633Z,40.20
2023-04-09T02:37:13.903Z,41.17
2023-04-09T02:39:40.863Z,40.67
2023-04-09T02:42:08.143Z,41.00
2023-04-09T02:44:35.175Z,42.37
2023-04-09T02:47:02.086Z,41.87
2023-04-09T02:49:29.097Z,39.50
2023-04-09T02:51:56.027Z,45.57
2023-04-09T02:54:22.971Z,44.60
2023-04-09T02:56:49.981Z,108.30
2023-04-09T02:59:16.857Z,83.93
2023-04-09T03:01:43.874Z,102.00
2023-04-09T03:04:11.002Z,106.73
2023-04-09T03:06:38.013Z,117.27
2023-04-09T03:09:04.940Z,78.37
2023-04-09T03:11:32.121Z,69.10
2023-04-09T03:14:00.053Z,52.67
2023-04-09T03:16:27.061Z,48.10
2023-04-09T03:18:54.420Z,48.80
2023-04-09T03:21:21.474Z,45.83
2023-04-09T03:23:48.372Z,44.07
2023-04-09T03:26:15.661Z,42.63
2023-04-09T03:28:42.579Z,42.10
2023-04-09T03:31:09.836Z,45.30
2023-04-09T03:33:36.750Z,44.73
2023-04-09T03:36:03.917Z,48.13
2023-04-09T03:38:30.941Z,43.63
2023-04-09T03:40:57.864Z,47.77
2023-04-09T03:43:24.827Z,46.50
2023-04-09T03:45:51.822Z,49.27
2023-04-09T03:48:18.682Z,48.77
2023-04-09T03:50:45.627Z,47.90
2023-04-09T03:53:12.557Z,43.50
2023-04-09T03:55:39.883Z,46.23
2023-04-09T03:58:07.154Z,46.77
2023-04-09T04:00:34.082Z,48.67
2023-04-09T04:03:01.235Z,48.10
2023-04-09T04:05:28.471Z,49.17
2023-04-09T04:07:55.526Z,48.90
2023-04-09T04:10:23.044Z,52.90
2023-04-09T04:12:50.008Z,50.27
2023-04-09T04:15:16.989Z,49.43
2023-04-09T04:17:43.956Z,54.27
2023-04-09T04:20:11.711Z,49.90
2023-04-09T04:22:39.600Z,52.37
2023-04-09T04:25:06.990Z,53.47
2023-04-09T04:27:33.869Z,55.77
2023-04-09T04:30:02.280Z,54.57
2023-04-09T04:32:30.507Z,54.27
2023-04-09T04:34:57.420Z,52.60
2023-04-09T04:37:24.341Z,53.50
2023-04-09T04:39:51.266Z,56.00
2023-04-09T04:42:18.219Z,52.50
2023-04-09T04:44:45.528Z,51.10
2023-04-09T04:47:12.621Z,54.30
2023-04-09T04:49:39.540Z,54.90
2023-04-09T04:52:07.635Z,51.97
2023-04-09T04:54:34.595Z,51.53
2023-04-09T04:57:01.719Z,51.77
2023-04-09T04:59:28.978Z,53.07
2023-04-09T05:01:56.089Z,55.37
2023-04-09T05:04:23.245Z,53.40
2023-04-09T05:06:50.293Z,53.47
2023-04-09T05:09:17.245Z,51.00
2023-04-09T05:11:44.106Z,54.73
2023-04-09T05:14:10.997Z,50.67
2023-04-09T05:16:37.916Z,53.03
2023-04-09T05:19:04.927Z,50.53
2023-04-09T05:21:32.514Z,53.03
2023-04-09T05:23:59.391Z,51.73
2023-04-09T05:26:27.254Z,47.50
2023-04-09T05:28:54.341Z,48.80
2023-04-09T05:31:21.624Z,46.60
2023-04-09T05:33:48.698Z,44.27
2023-04-09T05:36:19.318Z,43.00
2023-04-09T05:38:49.372Z,41.53
2023-04-09T05:41:16.479Z,42.60
2023-04-09T05:43:43.505Z,38.73
2023-04-09T05:46:10.731Z,35.37
2023-04-09T05:48:37.827Z,33.93
2023-04-09T05:51:04.787Z,34.60
2023-04-09T05:53:32.125Z,31.80
2023-04-09T05:55:59.127Z,30.57
2023-04-09T05:58:26.289Z,29.87
2023-04-09T06:00:53.255Z,30.27
2023-04-09T06:03:20.798Z,27.23
2023-04-09T06:05:48.478Z,26.70
2023-04-09T06:08:15.523Z,26.30
2023-04-09T06:10:42.536Z,27.10
2023-04-09T06:13:10.516Z,27.07
2023-04-09T06:15:39.254Z,26.43
2023-04-09T06:18:06.554Z,24.60
2023-04-09T06:20:33.772Z,24.13
2023-04-09T06:23:00.938Z,26.10
2023-04-09T06:25:27.880Z,24.77
2023-04-09T06:27:54.825Z,25.40
2023-04-09T06:30:23.090Z,31.37
2023-04-09T06:32:54.941Z,31.87
2023-04-09T06:35:22.979Z,33.60
2023-04-09T06:37:49.963Z,33.40
2023-04-09T06:40:16.973Z,33.93
2023-04-09T06:42:43.981Z,24.60
2023-04-09T06:45:11.134Z,25.33
2023-04-09T06:47:38.075Z,23.57
2023-04-09T06:50:05.788Z,26.47
2023-04-09T06:52:32.733Z,25.50
2023-04-09T06:55:00.976Z,27.27
2023-04-09T06:57:28.022Z,24.43
2023-04-09T06:59:54.995Z,24.57
2023-04-09T07:02:22.343Z,22.10
2023-04-09T07:04:49.547Z,21.20
2023-04-09T07:07:17.266Z,21.60
2023-04-09T07:09:45.165Z,21.00
2023-04-09T07:12:12.842Z,22.00
2023-04-09T07:14:39.792Z,23.90
2023-04-09T07:17:06.928Z,26.40
2023-04-09T07:19:33.990Z,22.00
2023-04-09T07:22:01.822Z,21.37
2023-04-09T07:24:28.853Z,23.60
2023-04-09T07:26:56.439Z,20.00
2023-04-09T07:29:23.377Z,19.47
2023-04-09T07:31:50.383Z,21.80
2023-04-09T07:34:17.448Z,21.03
2023-04-09T07:36:44.437Z,19.67
2023-04-09T07:39:11.370Z,18.80
2023-04-09T07:41:38.277Z,19.13
2023-04-09T07:44:06.501Z,19.10
2023-04-09T07:46:33.606Z,19.50
2023-04-09T07:49:00.833Z,18.77
2023-04-09T07:51:28.885Z,18.40
2023-04-09T07:53:55.829Z,16.87
2023-04-09T07:56:22.941Z,18.80
2023-04-09T07:58:50.921Z,18.57
2023-04-09T08:01:18.036Z,17.60
2023-04-09T08:03:45.696Z,18.37
2023-04-09T08:06:12.893Z,16.80
2023-04-09T08:08:39.833Z,17.97
2023-04-09T08:11:07.158Z,16.93
2023-04-09T08:13:34.595Z,18.50
2023-04-09T08:16:02.418Z,18.60
2023-04-09T08:18:29.670Z,17.40
2023-04-09T08:20:57.430Z,16.77
2023-04-09T08:23:24.526Z,16.63
2023-04-09T08:25:51.424Z,17.77
2023-04-09T08:28:18.429Z,17.40
2023-04-09T08:30:47.857Z,18.43
2023-04-09T08:33:15.600Z,17.40
2023-04-09T08:35:42.705Z,17.33
2023-04-09T08:38:09.692Z,17.70
2023-04-09T08:40:37.398Z,16.67
2023-04-09T08:43:09.649Z,16.97
2023-04-09T08:45:36.806Z,17.30
2023-04-09T08:48:05.164Z,16.73
2023-04-09T08:50:34.197Z,16.20
2023-04-09T08:53:04.708Z,16.13
2023-04-09T08:55:31.833Z,16.90
2023-04-09T08:57:58.875Z,16.77
2023-04-09T09:00:26.261Z,15.90
2023-04-09T09:03:10.967Z,16.90
2023-04-09T09:05:43.187Z,15.50
2023-04-09T09:08:23.248Z,17.00
2023-04-09T09:10:50.524Z,16.23
2023-04-09T09:13:27.930Z,16.00
2023-04-09T09:16:14.493Z,14.90
2023-04-09T09:18:45.166Z,14.90
2023-04-09T09:21:16.689Z,15.47
2023-04-09T09:23:45.740Z,14.83
2023-04-09T09:26:24.643Z,14.93
2023-04-09T09:28:52.365Z,14.30
2023-04-09T09:31:23.894Z,14.20
2023-04-09T09:33:54.869Z,13.47
2023-04-09T09:36:35.663Z,14.23
2023-04-09T09:39:05.375Z,12.30
2023-04-09T09:41:32.355Z,13.70
2023-04-09T09:43:59.283Z,10.83
2023-04-09T09:46:27.913Z,11.53
2023-04-09T09:48:55.157Z,11.03
2023-04-09T09:51:27.829Z,12.20
2023-04-09T09:53:57.678Z,11.27
2023-04-09T09:56:32.628Z,12.03
2023-04-09T09:59:23.544Z,12.83
2023-04-09T10:02:07.965Z,12.33
2023-04-09T10:04:38.646Z,11.70
2023-04-09T10:07:07.504Z,11.13
2023-04-09T10:09:37.890Z,11.47
2023-04-09T10:12:07.711Z,11.83
2023-04-09T10:14:36.141Z,11.67
2023-04-09T10:17:04.472Z,10.73
2023-04-09T10:19:35.747Z,12.07
2023-04-09T10:22:11.712Z,10.80
2023-04-09T10:24:39.689Z,12.30
2023-04-09T10:27:16.761Z,10.90
2023-04-09T10:29:49.580Z,11.37
2023-04-09T10:32:21.311Z,11.00
2023-04-09T10:34:49.334Z,11.77
2023-04-09T10:37:21.986Z,12.03
2023-04-09T10:39:51.018Z,12.93
2023-04-09T10:42:41.131Z,12.10
2023-04-09T10:45:14.427Z,11.93
2023-04-09T10:47:43.371Z,12.13
2023-04-09T10:50:22.196Z,12.30
2023-04-09T10:52:57.542Z,12.90
2023-04-09T10:55:41.425Z,11.50
2023-04-09T10:58:13.462Z,13.50
2023-04-09T11:00:42.467Z,10.73
2023-04-09T11:03:25.054Z,9.53
2023-04-09T11:06:02.995Z,10.80
2023-04-09T11:08:32.276Z,9.73
2023-04-09T11:11:01.807Z,11.03
2023-04-09T11:13:31.190Z,10.90
2023-04-09T11:15:58.886Z,11.83
2023-04-09T11:18:28.546Z,9.30
2023-04-09T11:21:00.994Z,12.60
2023-04-09T11:23:28.622Z,11.83
2023-04-09T11:25:56.595Z,11.57
2023-04-09T11:28:24.585Z,12.00
2023-04-09T11:30:52.333Z,12.37
2023-04-09T11:33:20.392Z,11.73
2023-04-09T11:35:48.217Z,11.07
2023-04-09T11:38:15.434Z,11.40
2023-04-09T11:40:51.513Z,8.37
2023-04-09T11:43:18.956Z,8.50
2023-04-09T11:45:49.123Z,9.17
2023-04-09T11:48:18.666Z,8.00
2023-04-09T11:50:47.510Z,8.00
2023-04-09T11:53:22.536Z,8.40
2023-04-09T11:55:53.371Z,7.43
2023-04-09T11:58:25.734Z,9.30
2023-04-09T12:00:58.011Z,8.20
2023-04-09T12:03:33.168Z,8.33
2023-04-09T12:06:02.160Z,9.10
2023-04-09T12:08:29.569Z,8.70
2023-04-09T12:10:56.513Z,8.53
2023-04-09T12:13:33.645Z,9.27
2023-04-09T12:16:02.974Z,7.63
2023-04-09T12:18:30.132Z,8.50
2023-04-09T12:20:57.197Z,8.93
2023-04-09T12:23:24.211Z,7.90
2023-04-09T12:25:51.217Z,7.10
2023-04-09T12:28:18.894Z,8.20
2023-04-09T12:30:47.544Z,8.43
2023-04-09T12:33:17.400Z,8.13
2023-04-09T12:35:44.610Z,8.53
2023-04-09T12:38:11.743Z,9.23
2023-04-09T12:40:39.418Z,10.40
2023-04-09T12:43:06.382Z,9.50
2023-04-09T12:45:33.985Z,9.47
2023-04-09T12:48:01.033Z,9.20
2023-04-09T12:50:28.503Z,9.87
2023-04-09T12:52:55.679Z,8.87
2023-04-09T12:55:22.693Z,10.30
2023-04-09T12:57:51.440Z,10.13
2023-04-09T13:00:18.751Z,10.10
2023-04-09T13:02:45.838Z,10.40
2023-04-09T13:05:13.909Z,9.50
2023-04-09T13:07:42.854Z,10.07
2023-04-09T13:10:10.544Z,9.70
2023-04-09T13:12:40.048Z,9.70
2023-04-09T13:15:13.960Z,9.90
2023-04-09T13:17:41.017Z,9.67
2023-04-09T13:20:08.876Z,10.73
2023-04-09T13:22:36.314Z,9.90
2023-04-09T13:25:04.511Z,9.73
2023-04-09T13:27:31.666Z,9.87
2023-04-09T13:29:58.583Z,9.40
2023-04-09T13:32:25.706Z,9.57
2023-04-09T13:34:54.713Z,10.83
2023-04-09T13:37:21.752Z,9.97
2023-04-09T13:39:50.596Z,9.87
2023-04-09T13:42:17.939Z,9.43
2023-04-09T13:44:45.800Z,9.37
2023-04-09T13:47:17.872Z,10.10
2023-04-09T13:49:45.280Z,9.20
2023-04-09T13:52:15.580Z,9.87
2023-04-09T13:54:42.872Z,8.70
2023-04-09T13:57:10.718Z,8.60
2023-04-09T13:59:38.938Z,9.43
2023-04-09T14:02:08.657Z,9.63
2023-04-09T14:04:36.223Z,9.50
2023-04-09T14:07:03.408Z,9.57
2023-04-09T14:09:30.739Z,9.60
2023-04-09T14:11:57.868Z,9.97
2023-04-09T14:14:24.977Z,9.13
2023-04-09T14:16:52.276Z,9.43
2023-04-09T14:19:19.318Z,9.60
2023-04-09T14:21:47.137Z,8.83
2023-04-09T14:24:14.151Z,8.67
2023-04-09T14:26:41.345Z,8.97
2023-04-09T14:29:09.346Z,9.50
2023-04-09T14:31:43.273Z,8.83
2023-04-09T14:34:11.080Z,9.93
2023-04-09T14:36:39.797Z,10.90
2023-04-09T14:39:06.758Z,8.47
2023-04-09T14:41:34.641Z,9.80
2023-04-09T14:44:01.906Z,8.40
2023-04-09T14:46:28.999Z,8.13
2023-04-09T14:48:55.937Z,8.37
2023-04-09T14:51:22.999Z,7.93
2023-04-09T14:53:49.915Z,7.97
2023-04-09T14:56:17.144Z,9.23
2023-04-09T14:58:44.202Z,9.30
2023-04-09T15:01:11.187Z,9.50
2023-04-09T15:03:38.481Z,8.93
2023-04-09T15:06:05.801Z,9.37
2023-04-09T15:08:32.859Z,8.27
2023-04-09T15:10:59.806Z,9.10
2023-04-09T15:13:26.791Z,9.43
2023-04-09T15:15:54.119Z,9.10
2023-04-09T15:18:21.873Z,8.03
2023-04-09T15:20:49.229Z,7.23
2023-04-09T15:23:16.386Z,8.33
2023-04-09T15:25:43.389Z,9.00
2023-04-09T15:28:11.037Z,7.80
2023-04-09T15:30:41.205Z,8.50
2023-04-09T15:33:08.823Z,8.77
2023-04-09T15:35:36.315Z,7.90
2023-04-09T15:38:03.349Z,8.20
2023-04-09T15:40:31.256Z,8.10
2023-04-09T15:42:58.241Z,8.37
2023-04-09T15:45:26.214Z,7.93
2023-04-09T15:47:53.245Z,8.50
2023-04-09T15:50:20.343Z,8.37
2023-04-09T15:52:47.467Z,8.50
2023-04-09T15:55:14.442Z,7.30
2023-04-09T15:57:41.510Z,7.17
2023-04-09T16:00:10.294Z,6.80
2023-04-09T16:02:39.329Z,7.70
2023-04-09T16:05:09.614Z,8.20
2023-04-09T16:07:37.034Z,7.27
2023-04-09T16:10:04.818Z,7.77
2023-04-09T16:12:31.824Z,6.73
2023-04-09T16:14:59.184Z,7.10
2023-04-09T16:17:26.469Z,7.60
2023-04-09T16:19:53.426Z,8.20
2023-04-09T16:22:20.342Z,7.13
2023-04-09T16:24:47.582Z,7.73
2023-04-09T16:27:15.752Z,7.10
2023-04-09T16:29:43.404Z,7.10
2023-04-09T16:32:13.587Z,6.73
2023-04-09T16:34:41.219Z,7.87
2023-04-09T16:37:09.541Z,7.50
2023-04-09T16:39:36.563Z,8.60
2023-04-09T16:42:03.657Z,7.47
2023-04-09T16:44:30.972Z,7.43
2023-04-09T16:47:02.738Z,7.90
2023-04-09T16:49:32.925Z,6.93
2023-04-09T16:51:59.968Z,10.90
2023-04-09T16:54:26.974Z,7.77
2023-04-09T16:56:54.012Z,7.27
2023-04-09T16:59:21.247Z,7.53
2023-04-09T17:01:49.226Z,7.93
2023-04-09T17:04:16.422Z,8.03
2023-04-09T17:06:43.653Z,8.40
2023-04-09T17:09:10.625Z,8.70
2023-04-09T17:11:38.267Z,8.90
2023-04-09T17:14:05.930Z,9.17
2023-04-09T17:16:33.441Z,9.67
2023-04-09T17:19:00.917Z,9.90
2023-04-09T17:21:28.004Z,9.73
2023-04-09T17:23:54.998Z,10.30
2023-04-09T17:26:22.015Z,9.10
2023-04-09T17:28:48.905Z,9.80
2023-04-09T17:31:16.306Z,10.33
2023-04-09T17:33:48.124Z,9.50
2023-04-09T17:36:17.565Z,9.80
2023-04-09T17:38:45.180Z,10.30
2023-04-09T17:41:12.161Z,9.50
2023-04-09T17:43:39.263Z,9.70
2023-04-09T17:46:11.874Z,9.87
2023-04-09T17:48:39.010Z,10.57
2023-04-09T17:51:07.925Z,8.87
2023-04-09T17:53:35.780Z,8.97
2023-04-09T17:56:05.669Z,10.30
2023-04-09T17:58:33.903Z,10.40
2023-04-09T18:01:00.865Z,12.20
2023-04-09T18:03:28.048Z,13.70
2023-04-09T18:05:55.213Z,15.63
2023-04-09T18:08:22.293Z,16.20
2023-04-09T18:11:08.954Z,17.67
2023-04-09T18:13:39.182Z,17.70
2023-04-09T18:16:10.681Z,18.23
2023-04-09T18:18:40.035Z,21.80
2023-04-09T18:21:07.271Z,23.53
2023-04-09T18:23:34.196Z,25.93
2023-04-09T18:26:16.585Z,28.03
2023-04-09T18:28:43.497Z,39.80
2023-04-09T18:31:12.156Z,43.47
2023-04-09T18:33:40.358Z,40.77
2023-04-09T18:36:07.645Z,31.90
2023-04-09T18:38:35.060Z,26.97
2023-04-09T18:41:01.969Z,25.77
2023-04-09T18:43:28.899Z,27.80
2023-04-09T18:45:57.130Z,23.40
2023-04-09T18:48:24.810Z,76.97
2023-04-09T18:50:52.236Z,93.67
2023-04-09T18:53:19.214Z,37.83
2023-04-09T18:55:46.513Z,25.33
2023-04-09T18:58:15.097Z,24.30
2023-04-09T19:00:43.578Z,25.37
2023-04-09T19:03:11.164Z,23.23
2023-04-09T19:05:38.854Z,23.60
2023-04-09T19:08:07.015Z,20.83
2023-04-09T19:10:33.946Z,21.27
2023-04-09T19:13:00.842Z,22.80
2023-04-09T19:15:29.365Z,23.10
2023-04-09T19:17:57.171Z,26.87
2023-04-09T19:20:24.280Z,28.50
2023-04-09T19:22:54.443Z,29.30
2023-04-09T19:25:22.945Z,57.40
2023-04-09T19:27:49.954Z,96.33
2023-04-09T19:30:17.107Z,99.77
2023-04-09T19:32:45.813Z,88.17
2023-04-09T19:35:12.994Z,91.93
2023-04-09T19:37:39.999Z,80.50
2023-04-09T19:40:45.360Z,65.50
2023-04-09T19:43:12.386Z,54.20
2023-04-09T19:45:39.952Z,60.77
2023-04-09T19:48:07.457Z,53.93
2023-04-09T19:50:38.581Z,60.03
2023-04-09T19:53:06.245Z,47.63
2023-04-09T19:55:34.219Z,49.40
2023-04-09T19:58:01.569Z,51.63
2023-04-09T20:00:29.022Z,48.30
2023-04-09T20:02:57.194Z,44.87
2023-04-09T20:05:24.476Z,43.10
2023-04-09T20:07:52.904Z,40.00
2023-04-09T20:10:20.227Z,30.20
2023-04-09T20:12:48.599Z,26.43
2023-04-09T20:15:17.592Z,26.80
2023-04-09T20:17:46.325Z,36.13
2023-04-09T20:20:13.412Z,37.60
2023-04-09T20:22:43.313Z,29.83
2023-04-09T20:25:13.895Z,25.27
2023-04-09T20:27:41.142Z,28.53
2023-04-09T20:30:09.053Z,27.57
2023-04-09T20:32:37.792Z,25.53
2023-04-09T20:35:09.172Z,30.10
2023-04-09T20:37:36.195Z,33.40
2023-04-09T20:40:03.635Z,31.30
2023-04-09T20:42:30.940Z,33.00
2023-04-09T20:48:48.496Z,31.23
2023-04-09T20:51:15.840Z,33.17
2023-04-09T20:53:42.963Z,33.67
2023-04-09T20:56:10.005Z,32.70
2023-04-09T20:58:36.996Z,32.93
2023-04-09T21:01:09.926Z,36.93
2023-04-09T21:03:39.177Z,35.77
2023-04-09T21:06:07.067Z,36.00
2023-04-09T21:08:34.696Z,34.60
2023-04-09T21:11:02.253Z,36.00
2023-04-09T21:13:30.050Z,36.00
2023-04-09T21:15:58.261Z,39.63
2023-04-09T21:18:25.473Z,40.73
2023-04-09T21:20:52.419Z,42.20
2023-04-09T21:23:19.537Z,40.37
2023-04-09T21:25:46.479Z,43.87
2023-04-09T21:28:13.484Z,41.70
2023-04-09T21:30:40.668Z,41.93
2023-04-09T21:33:09.230Z,43.40
2023-04-09T21:35:36.853Z,45.03
2023-04-09T21:38:04.096Z,41.67
2023-04-09T21:40:31.512Z,42.47
2023-04-09T21:42:58.568Z,41.67
2023-04-09T21:45:25.600Z,40.23
2023-04-09T21:47:52.753Z,39.37
2023-04-09T21:50:19.978Z,37.50
2023-04-09T21:52:47.408Z,37.40
2023-04-09T21:55:14.401Z,36.27
2023-04-09T21:57:41.482Z,36.97
2023-04-09T22:00:10.981Z,35.27
2023-04-09T22:02:39.357Z,39.20
2023-04-09T22:05:06.705Z,39.97
2023-04-09T22:07:33.784Z,39.77
2023-04-09T22:10:01.000Z,39.20
2023-04-09T22:12:27.881Z,42.00
2023-04-09T22:14:55.583Z,44.60
2023-04-09T22:17:22.689Z,46.40
2023-04-09T22:19:51.162Z,47.47
2023-04-09T22:22:18.147Z,45.90
2023-04-09T22:24:45.153Z,49.90
2023-04-09T22:27:13.100Z,50.77
2023-04-09T22:29:40.116Z,50.47
2023-04-09T22:32:07.360Z,52.30
2023-04-09T22:34:34.279Z,53.50
2023-04-09T22:37:02.163Z,51.00
2023-04-09T22:39:29.498Z,54.00
2023-04-09T22:41:56.586Z,53.37
2023-04-09T22:44:23.513Z,55.23
2023-04-09T22:46:50.942Z,57.73
2023-04-09T22:49:17.948Z,56.00
2023-04-09T22:51:44.855Z,57.60
2023-04-09T22:54:11.949Z,58.03
2023-04-09T22:56:39.785Z,60.00
2023-04-09T22:59:07.370Z,62.67
2023-04-09T23:01:34.410Z,57.93
2023-04-09T23:04:01.623Z,57.60
2023-04-09T23:06:29.012Z,58.83
2023-04-09T23:08:55.973Z,57.50
2023-04-09T23:11:23.081Z,56.00
2023-04-09T23:13:50.110Z,53.60
2023-04-09T23:16:17.157Z,57.67
2023-04-09T23:18:44.400Z,59.67
2023-04-09T23:21:11.718Z,58.53
2023-04-09T23:23:39.531Z,56.63
2023-04-09T23:26:06.985Z,54.93
2023-04-09T23:28:33.918Z,57.10
2023-04-09T23:31:01.392Z,59.60
2023-04-09T23:33:28.379Z,61.67
2023-04-09T23:35:55.573Z,56.80
2023-04-09T23:38:22.697Z,58.77
2023-04-09T23:40:50.095Z,58.13
2023-04-09T23:43:17.067Z,57.83
2023-04-09T23:45:44.525Z,62.70
2023-04-09T23:48:12.751Z,58.37
2023-04-09T23:50:41.264Z,61.17
2023-04-09T23:53:08.913Z,59.30
2023-04-09T23:55:40.825Z,58.40
2023-04-09T23:58:09.614Z,59.23
